Time;durP1;ratioP1;P1;durP2;ratioP2;P2;SDS_P1;SDS_P2;PMS_P1;PMS_P2;Temp;Humidity;BMP_temperature;BMP_pressure;BME280_temperature;BME280_humidity;BME280_pressure;Samples;Min_cycle;Max_cycle;Signal;HPM_P1;HPM_P2
2023/04/14 00:00:49;;;;;;;4.28;2.30;;;;;;;17.69;43.31;98828.69;5075392;28;20059;-70
2023/04/14 00:03:17;;;;;;;2.85;1.90;;;;;;;17.69;43.45;98812.50;5075490;28;20044;-70
2023/04/14 00:05:46;;;;;;;4.55;2.10;;;;;;;17.70;43.40;98819.56;5075188;28;20048;-70
2023/04/14 00:08:14;;;;;;;3.83;2.20;;;;;;;17.68;43.29;98805.38;5075442;28;20386;-70
2023/04/14 00:10:42;;;;;;;4.68;2.20;;;;;;;17.68;43.49;98793.78;5075338;28;20053;-71
2023/04/14 00:13:11;;;;;;;3.30;2.10;;;;;;;17.68;43.48;98780.28;5075209;28;20386;-71
2023/04/14 00:15:41;;;;;;;3.63;2.20;;;;;;;17.66;43.48;98775.06;5075119;28;20106;-71
2023/04/14 00:18:09;;;;;;;3.70;2.20;;;;;;;17.65;43.42;98767.97;5075034;28;20098;-71
2023/04/14 00:20:37;;;;;;;3.00;2.05;;;;;;;17.65;43.52;98767.13;5074755;28;20063;-71
2023/04/14 00:23:06;;;;;;;4.65;2.00;;;;;;;17.64;43.58;98771.69;5075106;28;20438;-70
2023/04/14 00:25:34;;;;;;;3.45;2.00;;;;;;;17.64;43.52;98777.06;5074915;28;20131;-71
2023/04/14 00:28:02;;;;;;;4.25;2.10;;;;;;;17.62;43.44;98764.78;5074952;28;20508;-71
2023/04/14 00:30:31;;;;;;;3.60;1.92;;;;;;;17.61;43.72;98763.94;5074605;28;20060;-70
2023/04/14 00:33:00;;;;;;;3.97;1.88;;;;;;;17.60;43.49;98759.56;5074706;28;20048;-72
2023/04/14 00:35:33;;;;;;;3.35;1.73;;;;;;;17.62;43.60;98762.09;5074847;28;20051;-70
2023/04/14 00:38:02;;;;;;;3.70;1.90;;;;;;;17.59;43.63;98774.06;5074915;28;20050;-70
2023/04/14 00:40:30;;;;;;;2.85;1.92;;;;;;;17.58;43.45;98772.41;5074708;28;20143;-70
2023/04/14 00:42:58;;;;;;;3.90;2.00;;;;;;;17.57;43.59;98773.41;5074635;28;20412;-70
2023/04/14 00:45:27;;;;;;;2.83;1.90;;;;;;;17.58;43.43;98785.88;5074559;28;20071;-71
2023/04/14 00:47:58;;;;;;;3.95;2.20;;;;;;;17.57;43.52;98781.50;5074679;28;20056;-70
2023/04/14 00:50:26;;;;;;;5.47;2.20;;;;;;;17.57;43.46;98778.81;5074659;28;20048;-70
2023/04/14 00:52:54;;;;;;;3.35;2.08;;;;;;;17.56;43.74;98787.88;5074298;28;20493;-70
2023/04/14 00:55:22;;;;;;;3.20;1.92;;;;;;;17.54;43.74;98780.97;5074387;28;20052;-70
2023/04/14 00:57:51;;;;;;;3.65;2.13;;;;;;;17.56;43.70;98778.94;5073194;28;20134;-70
2023/04/14 01:00:20;;;;;;;3.47;2.00;;;;;;;17.55;43.62;98774.56;5074419;28;20125;-70
2023/04/14 01:02:48;;;;;;;4.30;1.98;;;;;;;17.54;43.58;98771.03;5074339;28;20044;-70
2023/04/14 01:05:18;;;;;;;4.10;2.00;;;;;;;17.53;43.61;98769.34;5074214;28;20044;-71
2023/04/14 01:07:48;;;;;;;3.80;2.20;;;;;;;17.53;43.57;98774.75;5074222;28;20059;-71
2023/04/14 01:10:16;;;;;;;3.92;2.15;;;;;;;17.51;43.87;98760.59;5074001;28;20075;-70
2023/04/14 01:13:00;;;;;;;3.78;1.90;;;;;;;17.51;43.75;98760.59;5073996;28;20079;-71
2023/04/14 01:15:34;;;;;;;3.88;1.95;;;;;;;17.47;43.77;98737.72;5074041;28;20085;-70
2023/04/14 01:18:10;;;;;;;3.70;2.00;;;;;;;17.48;43.63;98739.41;5074145;28;20118;-70
2023/04/14 01:20:42;;;;;;;3.72;2.10;;;;;;;17.49;43.76;98730.28;5073371;28;20052;-71
2023/04/14 01:23:13;;;;;;;3.60;2.17;;;;;;;17.46;43.76;98719.84;5072946;28;20056;-71
2023/04/14 01:26:16;;;;;;;4.05;2.03;;;;;;;17.47;43.72;98710.75;5073893;28;20122;-71
2023/04/14 01:29:17;;;;;;;3.22;2.15;;;;;;;17.45;43.76;98710.91;5073583;28;20053;-71
2023/04/14 01:31:48;;;;;;;3.20;2.00;;;;;;;17.47;43.85;98697.28;5073605;28;20051;-71
2023/04/14 01:34:22;;;;;;;3.55;1.95;;;;;;;17.41;43.86;98668.31;5074100;28;20400;-71
2023/04/14 01:36:55;;;;;;;4.00;1.90;;;;;;;17.43;43.93;98667.13;5073687;28;20077;-71
2023/04/14 01:39:26;;;;;;;4.20;2.00;;;;;;;17.43;43.93;98663.59;5073723;28;20044;-70
2023/04/14 01:41:58;;;;;;;3.38;2.08;;;;;;;17.42;43.86;98665.44;5073279;28;20052;-70
2023/04/14 01:44:29;;;;;;;3.10;2.10;;;;;;;17.40;43.74;98663.94;5073730;28;20049;-70
2023/04/14 01:47:03;;;;;;;3.17;1.80;;;;;;;17.41;43.97;98673.72;5073332;28;20138;-70
2023/04/14 01:49:33;;;;;;;3.00;1.80;;;;;;;17.41;43.76;98676.41;5073001;28;20075;-70
2023/04/14 01:52:04;;;;;;;4.28;2.20;;;;;;;17.41;43.99;98673.72;5072233;28;20048;-71
2023/04/14 01:54:33;;;;;;;3.40;2.10;;;;;;;17.38;43.77;98671.38;5073017;28;20072;-70
2023/04/14 01:57:02;;;;;;;3.67;2.05;;;;;;;17.38;43.66;98674.06;5073448;28;20057;-70
2023/04/14 01:59:33;;;;;;;3.47;1.98;;;;;;;17.39;43.82;98673.91;5073285;28;20054;-71
2023/04/14 02:02:08;;;;;;;3.30;1.85;;;;;;;17.39;43.92;98667.66;5073025;28;20485;-70
2023/04/14 02:04:38;;;;;;;3.38;1.90;;;;;;;17.38;43.90;98660.59;5073554;28;20087;-70
2023/04/14 02:07:09;;;;;;;3.13;1.90;;;;;;;17.36;43.80;98665.28;5074322;28;20054;-70
2023/04/14 02:09:39;;;;;;;3.60;1.70;;;;;;;17.36;43.90;98662.59;5073067;28;20535;-70
2023/04/14 02:12:09;;;;;;;3.40;2.13;;;;;;;17.35;44.07;98652.84;5073127;28;20044;-70
2023/04/14 02:14:40;;;;;;;4.00;2.10;;;;;;;17.35;43.91;98652.84;5072977;28;20484;-70
2023/04/14 02:17:11;;;;;;;2.70;1.80;;;;;;;17.35;43.95;98648.28;5072856;28;20542;-70
2023/04/14 02:19:42;;;;;;;3.28;1.95;;;;;;;17.31;43.98;98627.28;5072421;28;20094;-70
2023/04/14 02:22:10;;;;;;;3.03;1.80;;;;;;;17.32;44.02;98621.69;5072722;28;20141;-70
2023/04/14 02:24:38;;;;;;;3.55;1.80;;;;;;;17.32;43.93;98615.47;5072726;28;20102;-70
2023/04/14 02:27:10;;;;;;;3.53;2.00;;;;;;;17.32;43.73;98620.84;5072682;28;20067;-70
2023/04/14 02:29:42;;;;;;;3.65;1.83;;;;;;;17.31;43.88;98630.81;5072279;28;20065;-71
2023/04/14 02:32:27;;;;;;;3.50;2.20;;;;;;;17.28;43.96;98630.31;5072366;28;20087;-70
2023/04/14 02:35:02;;;;;;;3.42;2.03;;;;;;;17.31;44.15;98657.75;5072575;28;20098;-70
2023/04/14 02:37:35;;;;;;;3.78;1.92;;;;;;;17.30;44.11;98647.16;5072657;28;20136;-71
2023/04/14 02:40:12;;;;;;;3.00;1.90;;;;;;;17.29;44.12;98645.47;5072651;28;20059;-70
2023/04/14 02:42:43;;;;;;;4.00;2.10;;;;;;;17.27;43.98;98648.31;5072035;28;20050;-71
2023/04/14 02:45:17;;;;;;;3.45;2.00;;;;;;;17.28;44.15;98646.50;5072441;28;20095;-70
2023/04/14 02:47:52;;;;;;;3.38;1.92;;;;;;;17.28;44.20;98646.50;5072178;28;20048;-71
2023/04/14 02:50:22;;;;;;;2.95;1.90;;;;;;;17.28;44.06;98646.50;5072188;28;20568;-71
2023/04/14 02:52:52;;;;;;;2.28;1.60;;;;;;;17.27;44.06;98644.78;5071927;28;20485;-70
2023/04/14 02:55:23;;;;;;;3.60;1.77;;;;;;;17.26;44.20;98632.31;5072314;28;20459;-70
2023/04/14 02:57:52;;;;;;;2.40;1.67;;;;;;;17.26;44.13;98629.63;5072116;28;20067;-71
2023/04/14 03:00:21;;;;;;;3.65;1.70;;;;;;;17.25;44.15;98617.16;5072087;28;20150;-70
2023/04/14 03:02:53;;;;;;;3.45;1.90;;;;;;;17.25;44.17;98617.16;5071999;28;20053;-71
2023/04/14 03:05:21;;;;;;;2.72;1.75;;;;;;;17.23;44.25;98616.50;5071906;28;20485;-71
2023/04/14 03:07:52;;;;;;;3.72;2.03;;;;;;;17.23;44.26;98624.59;5071792;28;20102;-71
2023/04/14 03:10:22;;;;;;;3.25;1.90;;;;;;;17.23;44.08;98622.75;5072189;28;20045;-71
2023/04/14 03:12:52;;;;;;;3.22;1.90;;;;;;;17.21;44.12;98614.00;5071998;28;20132;-71
2023/04/14 03:15:21;;;;;;;2.58;1.70;;;;;;;17.21;44.25;98616.69;5071777;28;20040;-71
2023/04/14 03:17:54;;;;;;;3.80;2.10;;;;;;;17.23;44.26;98616.50;5071727;28;20472;-71
2023/04/14 03:20:23;;;;;;;;;;;;;;;17.21;44.05;98594.31;5071872;28;20676;-71
2023/04/14 03:22:57;;;;;;;3.13;1.77;;;;;;;17.21;44.05;98587.06;5071750;28;20011;-70
2023/04/14 03:25:27;;;;;;;3.75;1.73;;;;;;;17.20;44.31;98587.22;5071843;28;20072;-70
2023/04/14 03:28:00;;;;;;;3.63;1.65;;;;;;;17.15;44.13;98572.41;5071728;28;20082;-71
2023/04/14 03:30:30;;;;;;;2.83;1.80;;;;;;;17.20;44.09;98576.47;5071398;28;20059;-70
2023/04/14 03:33:06;;;;;;;3.00;1.98;;;;;;;17.20;44.25;98581.84;5071843;28;20052;-70
2023/04/14 03:35:37;;;;;;;3.67;2.10;;;;;;;17.18;44.24;98571.25;5071825;28;20450;-70
2023/04/14 03:38:09;;;;;;;3.60;2.03;;;;;;;17.17;44.17;98553.38;5071753;28;20044;-69
2023/04/14 03:40:41;;;;;;;3.22;1.83;;;;;;;17.17;44.26;98537.22;5071563;28;20060;-71
2023/04/14 03:43:11;;;;;;;2.20;1.52;;;;;;;17.15;44.40;98533.88;5071368;28;20053;-69
2023/04/14 03:45:40;;;;;;;3.42;2.00;;;;;;;17.16;44.25;98538.22;5071656;28;20091;-70
2023/04/14 03:48:14;;;;;;;2.90;2.00;;;;;;;17.13;44.27;98533.22;5070546;28;20055;-70
2023/04/14 03:50:45;;;;;;;2.80;1.70;;;;;;;17.15;44.36;98550.88;5071545;28;20094;-70
2023/04/14 03:53:16;;;;;;;4.30;2.00;;;;;;;17.14;44.09;98586.91;5071448;28;20052;-71
2023/04/14 03:55:46;;;;;;;3.03;1.85;;;;;;;17.14;44.23;98650.72;5071346;28;20044;-70
2023/04/14 03:58:16;;;;;;;3.63;2.03;;;;;;;17.14;44.14;98716.22;5071581;28;20052;-70
2023/04/14 04:00:45;;;;;;;4.10;2.17;;;;;;;17.10;44.21;98671.78;5071346;28;20114;-70
2023/04/14 04:03:15;;;;;;;3.20;1.90;;;;;;;17.13;44.21;98682.22;5071227;28;20417;-70
2023/04/14 04:05:44;;;;;;;3.50;1.98;;;;;;;17.13;44.10;98670.59;5071333;28;20053;-70
2023/04/14 04:08:14;;;;;;;2.47;1.85;;;;;;;17.12;44.10;98664.38;5071198;28;20055;-70
2023/04/14 04:10:43;;;;;;;3.75;1.88;;;;;;;17.11;44.24;98640.31;5071419;28;20045;-69
2023/04/14 04:13:16;;;;;;;3.55;1.92;;;;;;;17.11;44.23;98633.06;5071301;28;20070;-70
2023/04/14 04:15:46;;;;;;;2.92;1.90;;;;;;;17.11;44.15;98624.13;5071390;28;20113;-69
2023/04/14 04:18:19;;;;;;;3.08;1.90;;;;;;;17.08;44.19;98622.63;5071087;28;20127;-70
2023/04/14 04:20:48;;;;;;;;;;;;;;;17.10;44.26;98620.59;5071577;28;20053;-70
2023/04/14 04:23:18;;;;;;;2.83;1.73;;;;;;;17.10;44.18;98626.00;5071028;28;19920;-70
2023/04/14 04:25:46;;;;;;;3.15;1.85;;;;;;;17.09;44.12;98634.25;5071150;28;20073;-70
2023/04/14 04:28:14;;;;;;;2.65;1.80;;;;;;;17.08;44.12;98629.84;5071131;28;20052;-70
2023/04/14 04:30:45;;;;;;;3.30;2.00;;;;;;;17.06;44.24;98621.94;5070733;28;20444;-71
2023/04/14 04:33:13;;;;;;;3.22;1.80;;;;;;;17.08;44.36;98619.06;5072424;28;20051;-70
2023/04/14 04:35:44;;;;;;;3.50;1.90;;;;;;;17.08;44.26;98608.31;5074565;28;20123;-69
2023/04/14 04:38:13;;;;;;;3.58;1.90;;;;;;;17.06;44.21;98605.78;5074949;28;20080;-71
2023/04/14 04:40:41;;;;;;;3.28;1.90;;;;;;;17.08;44.18;98614.56;5074528;28;20049;-70
2023/04/14 04:43:09;;;;;;;2.83;1.90;;;;;;;17.07;44.27;98606.63;5074259;28;20497;-69
2023/04/14 04:46:08;;;;;;;4.75;1.95;;;;;;;17.07;44.29;98612.00;5074420;28;20446;-70
2023/04/14 04:48:36;;;;;;;4.00;2.00;;;;;;;17.06;44.39;98605.78;5074386;28;20080;-69
2023/04/14 04:51:06;;;;;;;3.55;2.20;;;;;;;17.06;44.26;98599.56;5074124;28;20513;-70
2023/04/14 04:53:34;;;;;;;2.67;1.67;;;;;;;17.06;44.30;98604.94;5074532;28;20755;-70
2023/04/14 04:56:03;;;;;;;4.07;1.80;;;;;;;17.05;44.33;98611.34;5074311;28;20455;-70
2023/04/14 04:58:31;;;;;;;3.55;1.80;;;;;;;17.04;44.25;98613.22;5074153;28;20052;-70
2023/04/14 05:00:59;;;;;;;3.67;1.77;;;;;;;17.03;44.37;98611.53;5074050;28;20052;-71
2023/04/14 05:03:27;;;;;;;3.22;1.90;;;;;;;17.05;44.19;98627.50;5074591;28;20084;-71
2023/04/14 05:05:55;;;;;;;3.58;2.05;;;;;;;17.04;44.40;98634.75;5075553;28;20500;-71
2023/04/14 05:08:25;;;;;;;3.83;1.92;;;;;;;17.03;44.36;98649.25;5074548;28;20489;-71
2023/04/14 05:10:53;;;;;;;3.45;1.92;;;;;;;17.03;44.21;98643.00;5073487;28;20064;-71
2023/04/14 05:13:22;;;;;;;3.22;2.00;;;;;;;17.02;44.30;98650.25;5073360;28;20455;-71
2023/04/14 05:15:50;;;;;;;3.88;1.90;;;;;;;17.03;44.21;98651.09;5074137;28;20048;-71
2023/04/14 05:18:20;;;;;;;3.33;2.05;;;;;;;17.02;44.25;98647.56;5074112;28;20054;-71
2023/04/14 05:20:48;;;;;;;3.35;2.20;;;;;;;17.02;44.35;98647.56;5073800;28;20047;-72
2023/04/14 05:23:17;;;;;;;3.42;2.05;;;;;;;17.02;44.19;98647.56;5073827;28;20045;-71
2023/04/14 05:25:46;;;;;;;3.05;2.00;;;;;;;17.02;44.37;98647.56;5073778;28;20438;-72
2023/04/14 05:28:15;;;;;;;3.80;2.10;;;;;;;17.01;44.27;98648.56;5074024;28;20421;-71
2023/04/14 05:30:43;;;;;;;2.63;1.73;;;;;;;17.00;44.37;98633.44;5073338;28;20080;-71
2023/04/14 05:33:11;;;;;;;3.38;1.90;;;;;;;17.01;44.42;98631.56;5073410;28;20048;-70
2023/04/14 05:35:39;;;;;;;3.40;1.92;;;;;;;17.01;44.30;98629.72;5073358;28;20408;-71
2023/04/14 05:38:08;;;;;;;3.30;2.10;;;;;;;17.00;44.30;98630.75;5073258;28;20053;-70
2023/04/14 05:40:36;;;;;;;3.50;2.10;;;;;;;17.00;44.33;98632.59;5075768;28;20136;-69
2023/04/14 05:43:06;;;;;;;4.35;2.20;;;;;;;17.01;44.47;98639.66;5073063;28;20076;-71
2023/04/14 05:45:34;;;;;;;3.90;1.80;;;;;;;17.00;44.46;98643.38;5072834;28;20051;-68
2023/04/14 05:48:02;;;;;;;3.55;1.92;;;;;;;17.00;44.48;98638.81;5073112;28;20052;-68
2023/04/14 05:50:32;;;;;;;3.40;2.10;;;;;;;16.99;44.39;98639.84;5072890;28;20055;-68
2023/04/14 05:53:00;;;;;;;3.55;2.22;;;;;;;16.99;44.49;98637.13;5073108;28;20110;-67
2023/04/14 05:55:29;;;;;;;4.07;1.98;;;;;;;16.99;44.36;98645.22;5073186;28;20055;-68
2023/04/14 05:57:57;;;;;;;4.50;2.20;;;;;;;17.00;44.39;98654.13;5073136;28;20135;-67
2023/04/14 06:00:27;;;;;;;3.38;2.13;;;;;;;16.98;44.49;98640.81;5073002;28;20490;-68
2023/04/14 06:02:55;;;;;;;4.00;2.00;;;;;;;16.99;44.39;98645.22;5072922;28;20470;-68
2023/04/14 06:05:24;;;;;;;3.60;2.10;;;;;;;16.97;44.37;98636.44;5072549;28;20507;-67
2023/04/14 06:07:52;;;;;;;3.70;1.95;;;;;;;16.99;44.37;98642.53;5088778;28;20102;-67
2023/04/14 06:10:20;;;;;;;3.20;1.92;;;;;;;16.99;44.41;98641.69;5083710;28;20123;-67
2023/04/14 06:12:48;;;;;;;3.20;1.90;;;;;;;16.99;44.41;98633.59;5075051;28;20040;-67
2023/04/14 06:15:17;;;;;;;4.10;2.22;;;;;;;16.99;44.39;98639.84;5073080;28;20074;-66
2023/04/14 06:17:47;;;;;;;3.38;2.10;;;;;;;16.99;44.40;98641.69;5069308;28;20161;-68
2023/04/14 06:20:15;;;;;;;3.78;2.10;;;;;;;16.99;44.33;98639.00;5071427;28;20064;-67
2023/04/14 06:22:43;;;;;;;3.08;2.10;;;;;;;16.95;44.37;98627.72;5072646;28;20465;-67
2023/04/14 06:25:12;;;;;;;3.45;2.08;;;;;;;16.99;44.40;98626.38;5072488;28;20059;-69
2023/04/14 06:27:40;;;;;;;4.63;2.20;;;;;;;16.99;44.47;98626.38;5072417;28;20045;-68
2023/04/14 06:30:09;;;;;;;2.95;1.90;;;;;;;16.98;44.40;98619.28;5080560;28;20094;-67
2023/04/14 06:32:37;;;;;;;3.80;2.17;;;;;;;17.00;44.38;98621.81;5092554;28;20127;-69
2023/04/14 06:35:07;;;;;;;3.63;2.10;;;;;;;17.00;44.38;98616.44;5092780;28;20074;-68
2023/04/14 06:37:46;;;;;;;3.55;2.25;;;;;;;17.01;44.43;98618.94;5092480;28;20058;-69
2023/04/14 06:40:14;;;;;;;3.72;2.30;;;;;;;17.00;44.39;98606.50;5092421;28;20097;-70
2023/04/14 06:42:42;;;;;;;3.63;2.10;;;;;;;16.99;44.42;98604.81;5092131;28;20048;-68
2023/04/14 06:45:11;;;;;;;4.03;2.28;;;;;;;17.00;44.51;98603.81;5091979;28;20048;-70
2023/04/14 06:47:39;;;;;;;3.55;2.15;;;;;;;17.00;44.54;98602.97;5092467;28;20051;-70
2023/04/14 06:50:09;;;;;;;3.88;2.40;;;;;;;17.01;44.50;98608.19;5092512;28;20044;-70
2023/04/14 06:52:38;;;;;;;4.82;2.33;;;;;;;16.99;44.48;98607.50;5092334;28;20135;-70
2023/04/14 06:55:07;;;;;;;3.72;2.50;;;;;;;17.00;44.54;98611.88;5091913;28;20052;-70
2023/04/14 06:57:35;;;;;;;3.25;2.20;;;;;;;16.99;44.56;98607.50;5091990;28;20050;-70
2023/04/14 07:00:06;;;;;;;3.38;2.08;;;;;;;17.01;44.40;98612.72;5092299;28;20047;-70
2023/04/14 07:02:34;;;;;;;3.90;2.20;;;;;;;17.01;44.43;98608.19;5092578;28;20048;-69
2023/04/14 07:05:02;;;;;;;4.10;2.08;;;;;;;17.01;44.51;98602.78;5092025;28;20070;-70
2023/04/14 07:07:34;;;;;;;5.15;2.72;;;;;;;17.01;44.55;98607.34;5092027;28;20481;-69
2023/04/14 07:10:03;;;;;;;3.63;2.00;;;;;;;17.01;44.48;98602.78;5092366;28;20481;-69
2023/04/14 07:12:31;;;;;;;3.58;2.10;;;;;;;17.02;44.47;98599.06;5091773;28;20051;-69
2023/04/14 07:14:59;;;;;;;3.10;2.03;;;;;;;16.98;44.52;98595.03;5091824;28;20512;-70
2023/04/14 07:17:27;;;;;;;3.45;2.00;;;;;;;17.01;44.51;98602.78;5091989;28;20093;-70
2023/04/14 07:19:57;;;;;;;3.55;2.30;;;;;;;17.02;44.50;98599.06;5091757;28;20515;-70
2023/04/14 07:22:25;;;;;;;3.67;2.30;;;;;;;17.03;44.47;98599.91;5091921;28;20052;-70
2023/04/14 07:24:57;;;;;;;3.60;2.20;;;;;;;17.03;44.63;98598.06;5091468;28;20109;-70
2023/04/14 07:27:27;;;;;;;4.88;2.10;;;;;;;17.02;44.50;98588.31;5091836;28;20408;-70
2023/04/14 07:29:55;;;;;;;3.55;2.10;;;;;;;17.03;44.58;98592.66;5091594;28;20056;-69
2023/04/14 07:32:23;;;;;;;4.10;2.40;;;;;;;17.04;44.51;98591.66;5091816;28;20047;-69
2023/04/14 07:34:52;;;;;;;4.40;2.30;;;;;;;17.03;44.61;98587.28;5091711;28;20055;-70
2023/04/14 07:37:20;;;;;;;3.83;2.22;;;;;;;17.00;44.52;98578.72;5091627;28;20040;-70
2023/04/14 07:39:52;;;;;;;4.03;2.38;;;;;;;17.04;44.57;98582.75;5091911;28;20212;-69
2023/04/14 07:42:22;;;;;;;5.10;2.45;;;;;;;17.05;44.65;98584.41;5091815;28;20125;-70
2023/04/14 07:44:50;;;;;;;3.78;2.35;;;;;;;17.04;44.64;98583.56;5091601;28;20083;-70
2023/04/14 07:47:18;;;;;;;4.10;2.20;;;;;;;17.03;44.66;98592.66;5091698;28;20036;-69
2023/04/14 07:49:46;;;;;;;3.78;2.20;;;;;;;17.03;44.63;98578.38;5091396;28;20044;-70
2023/04/14 07:52:15;;;;;;;3.47;2.20;;;;;;;17.05;44.62;98581.72;5091539;28;20048;-70
2023/04/14 07:54:44;;;;;;;4.28;2.20;;;;;;;17.04;44.63;98580.88;5091558;28;20549;-69
2023/04/14 07:57:12;;;;;;;3.72;2.20;;;;;;;17.04;44.55;98583.56;5091514;28;20093;-69
2023/04/14 07:59:42;;;;;;;4.35;2.40;;;;;;;17.03;44.59;98579.22;5091394;28;20497;-69
2023/04/14 08:02:10;;;;;;;5.45;2.42;;;;;;;17.06;44.71;98589.63;5092670;28;20086;-69
2023/04/14 08:04:39;;;;;;;3.85;2.33;;;;;;;17.06;44.65;98595.00;5092425;28;20496;-69
2023/04/14 08:07:07;;;;;;;3.83;2.35;;;;;;;17.07;44.69;98596.69;5093604;28;20040;-70
2023/04/14 08:09:35;;;;;;;4.00;2.38;;;;;;;17.07;44.62;98604.78;5095777;28;20087;-70
2023/04/14 08:12:03;;;;;;;4.32;2.40;;;;;;;17.08;44.65;98606.47;5095335;28;20051;-69
2023/04/14 08:14:32;;;;;;;3.50;2.20;;;;;;;17.05;44.67;98597.88;5095393;28;20044;-69
2023/04/14 08:17:01;;;;;;;4.35;2.38;;;;;;;17.09;44.67;98599.22;5095194;28;20040;-69
2023/04/14 08:19:32;;;;;;;4.82;2.75;;;;;;;17.08;44.65;98584.94;5095235;28;20047;-70
2023/04/14 08:22:00;;;;;;;4.90;2.70;;;;;;;17.09;44.82;98583.91;5095508;28;20047;-70
2023/04/14 08:24:29;;;;;;;3.35;2.33;;;;;;;17.09;44.65;98585.75;5095377;28;20048;-70
2023/04/14 08:26:57;;;;;;;4.50;2.40;;;;;;;17.09;44.76;98586.59;5095130;28;20048;-70
2023/04/14 08:29:25;;;;;;;4.68;2.83;;;;;;;17.10;44.66;98571.28;5094737;28;20048;-70
2023/04/14 08:32:05;;;;;;;5.07;2.70;;;;;;;17.09;44.71;98565.06;5094551;28;20083;-70
2023/04/14 08:34:34;;;;;;;4.47;2.35;;;;;;;17.09;44.70;98575.81;5094948;28;20512;-69
2023/04/14 08:37:02;;;;;;;4.32;2.60;;;;;;;17.08;44.65;98576.84;5095266;28;20135;-70
2023/04/14 08:39:30;;;;;;;3.97;2.38;;;;;;;17.08;44.87;98579.53;5094864;28;20086;-70
2023/04/14 08:41:58;;;;;;;4.57;2.33;;;;;;;17.11;44.92;98581.03;5094837;28;20080;-70
2023/04/14 08:44:27;;;;;;;3.60;2.50;;;;;;;17.10;44.86;98579.34;5094698;28;20105;-71
2023/04/14 08:46:55;;;;;;;4.35;2.53;;;;;;;17.10;44.89;98585.59;5094522;28;20286;-70
2023/04/14 08:49:34;;;;;;;4.97;2.80;;;;;;;17.10;44.89;98593.66;5094368;28;20040;-70
2023/04/14 08:52:04;;;;;;;3.40;2.25;;;;;;;17.10;44.89;98598.22;5094461;28;20157;-70
2023/04/14 08:54:33;;;;;;;3.95;2.33;;;;;;;17.10;44.99;98607.13;5094380;28;20048;-70
2023/04/14 08:57:03;;;;;;;3.67;2.30;;;;;;;17.08;44.88;98601.09;5094472;28;20055;-70
2023/04/14 08:59:31;;;;;;;4.40;2.70;;;;;;;17.10;45.04;98611.69;5094694;28;20044;-69
2023/04/14 09:02:00;;;;;;;4.30;2.55;;;;;;;17.10;44.99;98609.84;5094327;28;20434;-70
2023/04/14 09:04:31;;;;;;;3.38;2.40;;;;;;;17.11;45.00;98608.81;5094404;28;20415;-69
2023/04/14 09:07:01;;;;;;;4.38;2.58;;;;;;;17.11;45.08;98602.59;5094388;28;20040;-69
2023/04/14 09:09:31;;;;;;;4.80;2.50;;;;;;;17.10;45.09;98607.13;5094074;28;20381;-69
2023/04/14 09:12:01;;;;;;;3.97;2.60;;;;;;;17.10;44.96;98612.53;5094103;28;20051;-70
2023/04/14 09:14:30;;;;;;;3.47;2.20;;;;;;;17.09;45.12;98605.47;5094041;28;20044;-70
2023/04/14 09:16:58;;;;;;;4.05;2.40;;;;;;;17.11;45.13;98614.19;5094307;28;20059;-70
2023/04/14 09:19:27;;;;;;;3.50;2.35;;;;;;;17.10;45.15;98617.06;5093346;28;20063;-70
2023/04/14 09:21:57;;;;;;;3.65;2.40;;;;;;;17.11;45.14;98624.97;5093953;28;20082;-70
2023/04/14 09:24:28;;;;;;;5.25;2.83;;;;;;;17.10;45.24;98631.38;5094124;28;20055;-71
2023/04/14 09:27:02;;;;;;;4.30;2.67;;;;;;;17.11;45.26;98624.97;5093844;28;20052;-70
2023/04/14 09:29:30;;;;;;;4.05;2.35;;;;;;;17.11;45.27;98630.38;5093819;28;20144;-70
2023/04/14 09:31:59;;;;;;;4.35;2.80;;;;;;;17.11;45.26;98632.22;5094058;28;20445;-70
2023/04/14 09:34:27;;;;;;;3.88;2.38;;;;;;;17.11;45.06;98624.97;5093644;28;20048;-70
2023/04/14 09:37:05;;;;;;;4.10;2.45;;;;;;;17.11;45.33;98624.97;5093903;28;20459;-70
2023/04/14 09:39:33;;;;;;;3.45;2.35;;;;;;;17.11;45.23;98634.91;5093848;28;20436;-71
2023/04/14 09:42:03;;;;;;;4.13;2.40;;;;;;;17.11;45.25;98635.75;5093709;28;20048;-71
2023/04/14 09:44:31;;;;;;;4.13;2.58;;;;;;;17.11;45.25;98630.38;5093643;28;20447;-71
2023/04/14 09:47:00;;;;;;;5.03;2.70;;;;;;;17.12;45.36;98623.97;5093833;28;20059;-71
2023/04/14 09:49:29;;;;;;;4.00;2.50;;;;;;;17.12;45.36;98618.56;5093449;28;20071;-71
2023/04/14 09:52:05;;;;;;;3.67;2.22;;;;;;;17.11;45.08;98607.97;5093492;28;20143;-71
2023/04/14 09:54:33;;;;;;;3.88;2.47;;;;;;;17.12;45.38;98607.78;5093564;28;20106;-71
2023/04/14 09:57:04;;;;;;;4.18;2.50;;;;;;;17.13;45.29;98612.16;5093689;28;20105;-71
2023/04/14 09:59:33;;;;;;;4.30;2.65;;;;;;;17.09;45.49;98610.84;5093381;28;20408;-72
2023/04/14 10:02:05;;;;;;;3.70;2.53;;;;;;;17.11;45.42;98607.97;5093420;28;20135;-71
2023/04/14 10:04:33;;;;;;;3.97;2.50;;;;;;;17.13;45.42;98612.16;5093419;28;20506;-71
2023/04/14 10:07:02;;;;;;;3.95;2.55;;;;;;;17.13;45.47;98625.63;5093148;28;20054;-71
2023/04/14 10:09:36;;;;;;;4.10;2.70;;;;;;;17.12;45.46;98621.25;5093325;28;20048;-70
2023/04/14 10:12:10;;;;;;;4.13;2.50;;;;;;;17.10;45.68;98615.22;5092966;28;20462;-70
2023/04/14 10:14:40;;;;;;;4.70;2.80;;;;;;;17.13;45.64;98617.56;5093140;28;20059;-70
2023/04/14 10:17:08;;;;;;;4.82;2.60;;;;;;;17.13;45.56;98622.94;5092668;28;20500;-70
2023/04/14 10:19:37;;;;;;;4.90;2.53;;;;;;;17.13;45.37;98616.72;5092676;28;20048;-70
2023/04/14 10:22:06;;;;;;;4.65;2.70;;;;;;;17.13;45.58;98622.94;5093049;28;20093;-71
2023/04/14 10:24:36;;;;;;;4.82;2.83;;;;;;;17.14;45.65;98618.41;5092630;28;20138;-71
2023/04/14 10:27:05;;;;;;;5.07;2.53;;;;;;;17.14;45.55;98623.78;5092913;28;20062;-71
2023/04/14 10:29:33;;;;;;;4.18;2.58;;;;;;;17.12;45.60;98621.25;5092370;28;20060;-70
2023/04/14 10:32:06;;;;;;;4.30;2.70;;;;;;;17.14;45.58;98629.16;5092105;28;20048;-70
2023/04/14 10:34:37;;;;;;;3.50;2.38;;;;;;;17.13;45.78;98612.16;5092791;28;20420;-70
2023/04/14 10:37:14;;;;;;;3.58;2.38;;;;;;;17.14;45.64;98618.41;5092540;28;20086;-70
2023/04/14 10:39:43;;;;;;;4.10;2.90;;;;;;;17.14;45.66;98619.22;5092695;28;20048;-70
2023/04/14 10:42:11;;;;;;;4.30;2.47;;;;;;;17.14;45.58;98621.94;5092475;28;20500;-70
2023/04/14 10:44:39;;;;;;;3.63;2.30;;;;;;;17.14;45.73;98619.22;5092584;28;20048;-71
2023/04/14 10:47:07;;;;;;;4.65;2.58;;;;;;;17.15;45.64;98620.06;5092356;28;20522;-70
2023/04/14 10:49:37;;;;;;;4.32;2.55;;;;;;;17.14;45.64;98613.84;5092262;28;20063;-70
2023/04/14 10:52:06;;;;;;;3.90;2.50;;;;;;;17.15;45.73;98612.81;5092371;28;20115;-70
2023/04/14 10:54:52;;;;;;;4.05;2.38;;;;;;;17.14;45.73;98613.84;5092409;28;20059;-70
2023/04/14 10:57:22;;;;;;;4.78;2.53;;;;;;;17.13;45.66;98606.78;5092200;28;20420;-70
2023/04/14 10:59:55;;;;;;;3.95;2.40;;;;;;;17.14;45.74;98608.47;5092092;28;20488;-70
2023/04/14 11:02:28;;;;;;;3.75;2.45;;;;;;;17.15;45.94;98604.75;5091964;28;20412;-70
2023/04/14 11:05:03;;;;;;;4.07;2.33;;;;;;;17.15;45.88;98604.75;5092186;28;20045;-71
2023/04/14 11:07:36;;;;;;;4.80;2.83;;;;;;;17.13;46.01;98601.38;5091946;28;20078;-70
2023/04/14 11:10:28;;;;;;;4.18;2.72;;;;;;;17.15;45.93;98602.06;5091751;28;20048;-71
2023/04/14 11:13:00;;;;;;;4.45;2.97;;;;;;;17.16;45.91;98600.19;5091931;28;20052;-70
2023/04/14 11:15:48;;;;;;;5.43;2.53;;;;;;;17.16;45.81;98595.66;5091987;28;20044;-70
2023/04/14 11:18:19;;;;;;;3.97;2.58;;;;;;;17.15;45.85;98599.34;5091552;28;20048;-70
2023/04/14 11:20:47;;;;;;;4.68;2.63;;;;;;;17.15;45.92;98593.13;5091716;28;20282;-71
2023/04/14 11:23:15;;;;;;;4.45;2.60;;;;;;;17.16;46.11;98600.19;5091650;28;20052;-71
2023/04/14 11:25:45;;;;;;;4.45;2.50;;;;;;;17.16;46.02;98589.41;5092133;28;20050;-70
2023/04/14 11:28:13;;;;;;;3.92;2.45;;;;;;;17.16;45.91;98587.56;5091887;28;20556;-70
2023/04/14 11:30:43;;;;;;;4.00;2.67;;;;;;;17.15;46.15;98585.88;5091589;28;20699;-70
2023/04/14 11:33:11;;;;;;;4.40;2.75;;;;;;;17.16;46.10;98587.56;5091909;28;20079;-70
2023/04/14 11:35:42;;;;;;;4.68;2.25;;;;;;;17.16;46.13;98584.03;5091531;28;20044;-71
2023/04/14 11:38:11;;;;;;;4.00;2.47;;;;;;;17.16;45.95;98584.88;5091918;28;20101;-70
2023/04/14 11:40:39;;;;;;;3.90;2.58;;;;;;;17.16;46.00;98584.88;5091663;28;20401;-70
2023/04/14 11:43:08;;;;;;;3.83;2.38;;;;;;;17.14;46.30;98581.53;5091523;28;20448;-71
2023/04/14 11:45:41;;;;;;;4.60;2.50;;;;;;;17.17;46.05;98586.53;5091575;28;20044;-70
2023/04/14 11:48:11;;;;;;;4.20;2.60;;;;;;;17.17;46.10;98586.53;5091076;28;20121;-71